This is the latest recevied weather packets stored in our database for station/object IZ2WMD-13. If no packets are shown the sender has not sent any weather packets the latest 10 day(s).
| Time | Temp. | Humidity | Pressure | Rain* | Wind** | Luminosity | Snow |
|---|---|---|---|---|---|---|---|
| 1777680028 | 8.89° C | 78% | 1025.9 hPa | - | - | - | - |
| 1777678823 | 8.89° C | 80% | 1026 hPa | - | - | - | - |
| 1777677618 | 8.89° C | 77% | 1026 hPa | - | - | - | - |
| 1777676413 | 9.44° C | 76% | 1026 hPa | - | - | - | - |
| 1777675208 | 9.44° C | 75% | 1025.9 hPa | - | - | - | - |
| 1777672798 | 10.56° C | 70% | 1025.7 hPa | - | - | - | - |
| 1777671594 | 11.11° C | 65% | 1025.5 hPa | - | - | - | - |
| 1777670389 | 11.11° C | 66% | 1025.5 hPa | - | - | - | - |
| 1777669184 | 11.67° C | 67% | 1025.5 hPa | - | - | - | - |
| 1777666775 | 12.22° C | 63% | 1025.1 hPa | - | - | - | - |
| 1777665570 | 12.78° C | 59% | 1024.9 hPa | - | - | - | - |
| 1777664365 | 13.33° C | 58% | 1024.6 hPa | - | - | - | - |
| 1777663160 | 13.89° C | 56% | 1024.3 hPa | - | - | - | - |
| 1777661955 | 14.44° C | 50% | 1024.1 hPa | - | - | - | - |
| 1777660750 | 15.56° C | 45% | 1023.8 hPa | - | - | - | - |
| 1777659545 | 16.67° C | 40% | 1023.6 hPa | - | - | - | - |
| 1777657135 | 17.78° C | 35% | 1023.3 hPa | - | - | - | - |
| 1777655930 | 18.33° C | 34% | 1023.2 hPa | - | - | - | - |
| 1777654726 | 18.89° C | 33% | 1023.2 hPa | - | - | - | - |
| 1777653521 | 18.89° C | 33% | 1023.2 hPa | - | - | - | - |
| 1777652316 | 19.44° C | 32% | 1023.3 hPa | - | - | - | - |
| 1777651111 | 20° C | 31% | 1023.4 hPa | - | - | - | - |
| 1777649907 | 21.11° C | 30% | 1023.6 hPa | - | - | - | - |
| 1777648702 | 22.78° C | 27% | 1023.6 hPa | - | - | - | - |
| 1777647497 | 23.89° C | 25% | 1023.6 hPa | - | - | - | - |
* Rain since midnight (hover to see other rain measurements)
** Current wind speed in m/s (hover to see current wind gust speed)